Tony Lippman — WDC2428 — position and weather

sailwx.info

Track history (hours):
 
Tides and Currents Weather Stations Pressure Air Temp Water Temp Dewpoint Dewpoint Depression Visibility Wind Speed Wind Dir Waves Ship Positions

Tony Lippman

Owner: Florida Marine, LLC, Mandeville, LA. More information available from US FCC via Universal Licensing System and Coast Guard Vessel Documentation Center.

Last reported at 2018-Feb-20 06:23 UTC. Time now 2018-Feb-20 13:38 UTC.
Position N 32°03' W 091°03'.

Length 44 m; draft 2.6 m.

Type: Towing. MMSI: 366993020.

Date/timePositionNaut miles runAvg speedWind from/ knotsBaromVisibWave heightAir tempDewpointWater temp
2018-Feb-20 06:23N 32°03' W 091°03'410.1
2018-Feb-20 05:59N 32°06' W 091°06'3 6.9
2018-Feb-20 05:30N 32°07' W 091°02'510.2
2018-Feb-20 05:00N 32°12' W 090°59'510.6
2018-Feb-20 04:30N 32°17' W 090°57'4 8.7
2018-Feb-20 04:01N 32°21' W 090°55'5 9.3
2018-Feb-20 03:30N 32°22' W 091°00'4 8.5
2018-Feb-20 03:01N 32°26' W 091°02'510.3
2018-Feb-20 02:30N 32°29' W 091°07'10 0.3
2018-Feb-18 18:41N 32°40' W 091°08'3 5.4
2018-Feb-18 18:08N 32°37' W 091°09'1 5.7
2018-Feb-18 18:00N 32°36' W 091°09'3 5.1
2018-Feb-18 17:30N 32°34' W 091°07'3 5.7
2018-Feb-18 16:57N 32°31' W 091°06'3 5.7
2018-Feb-18 16:31N 32°29' W 091°07'3 6.2
2018-Feb-18 16:00N 32°27' W 091°04'3 5.6
2018-Feb-18 15:30N 32°25' W 091°01'2 4.9
2018-Feb-18 15:00N 32°23' W 090°60'3 5.1
2018-Feb-18 14:30N 32°21' W 090°58'0 0.4
2018-Feb-18 14:00N 32°21' W 090°58'0 0.0
2018-Feb-18 13:30N 32°21' W 090°58'0 0.0
2018-Feb-18 13:00N 32°21' W 090°58'1 2.9
2018-Feb-18 12:30N 32°21' W 090°56'2 4.6
2018-Feb-18 12:00N 32°19' W 090°54'2 4.5
2018-Feb-18 11:31N 32°17' W 090°56'3 5.2
2018-Feb-18 11:00N 32°16' W 090°58'2 4.0
2018-Feb-18 10:31N 32°14' W 090°59'2 4.8
2018-Feb-18 10:00N 32°11' W 090°60'3 5.7
2018-Feb-18 09:30N 32°08' W 091°00'2 4.4
2018-Feb-18 09:00N 32°07' W 091°03'3 5.1
2018-Feb-18 08:30N 32°08' W 091°05'1 2.6
2018-Feb-18 08:00N 32°07' W 091°07'4 5.3
2018-Feb-18 07:10N 32°04' W 091°03'  
2018-Feb-14 07:27N 32°06' W 091°06'3 5.9
2018-Feb-14 07:00N 32°07' W 091°03'4 8.2
2018-Feb-14 06:30N 32°10' W 090°60'510.1
2018-Feb-14 06:00N 32°15' W 090°59'5 9.9
2018-Feb-14 05:30N 32°19' W 090°54'3 6.7
2018-Feb-14 05:01N 32°21' W 090°57'3 6.6
2018-Feb-14 04:30N 32°24' W 090°59'4 8.4
2018-Feb-14 04:01N 32°26' W 091°03'5 8.8
2018-Feb-14 03:30N 32°30' W 091°07'5 9.3
2018-Feb-14 03:00N 32°34' W 091°07'3 0.1
2018-Feb-12 05:35N 32°36' W 091°09'0 4.6
2018-Feb-12 05:30N 32°36' W 091°08'2 4.7
2018-Feb-12 05:01N 32°34' W 091°07'2 4.4
2018-Feb-12 04:29N 32°32' W 091°06'2 4.7
2018-Feb-12 04:01N 32°30' W 091°07'2 4.6
2018-Feb-12 03:30N 32°28' W 091°06'3 5.1
2018-Feb-12 03:00N 32°26' W 091°04'3 5.1
2018-Feb-12 02:30N 32°26' W 091°01'3 5.4
2018-Feb-12 02:01N 32°23' W 090°60'2 4.8
2018-Feb-12 01:30N 32°21' W 090°58'0 0.8
2018-Feb-12 01:01N 32°21' W 090°58'1 1.7
2018-Feb-12 00:30N 32°21' W 090°57'2 4.7
2018-Feb-12 00:00N 32°20' W 090°54'2 3.1
2018-Feb-11 23:31N 32°18' W 090°55'0 0.1
2018-Feb-11 23:01N 32°18' W 090°55'0 0.0
2018-Feb-11 22:30N 32°18' W 090°55'0 0.0
2018-Feb-11 22:00N 32°18' W 090°55'0 0.0
2018-Feb-11 21:31N 32°18' W 090°55'1 1.5
2018-Feb-11 21:00N 32°18' W 090°56'3 5.2
2018-Feb-11 20:31N 32°16' W 090°58'2 4.7
2018-Feb-11 20:01N 32°14' W 090°59'2 4.8
2018-Feb-11 19:30N 32°11' W 090°60'2 5.0
2018-Feb-11 19:00N 32°09' W 091°00'2 4.6
2018-Feb-11 18:29N 32°07' W 091°02'4 4.7
2018-Feb-11 17:43N 32°08' W 091°06'1 4.5
2018-Feb-11 17:31N 32°07' W 091°07'4 4.1
2018-Feb-11 16:26N 32°04' W 091°03'  
Track history (hours):
 
Tides and Currents Weather Stations Pressure Air Temp Water Temp Dewpoint Dewpoint Depression Visibility Wind Speed Wind Dir Waves Ship Positions

Tony Lippman

Owner: Florida Marine, LLC, Mandeville, LA. More information available from US FCC via Universal Licensing System and Coast Guard Vessel Documentation Center.

Last reported at 2018-Feb-20 06:23 UTC. Time now 2018-Feb-20 13:38 UTC.
Position N 32°03' W 091°03'.

Length 44 m; draft 2.6 m.

Type: Towing. MMSI: 366993020.

Date/timePositionNaut miles runAvg speedWind from/ knotsBaromVisibWave heightAir tempDewpointWater temp
2018-Feb-20 06:23N 32°03' W 091°03'410.1
2018-Feb-20 05:59N 32°06' W 091°06'3 6.9
2018-Feb-20 05:30N 32°07' W 091°02'510.2
2018-Feb-20 05:00N 32°12' W 090°59'510.6
2018-Feb-20 04:30N 32°17' W 090°57'4 8.7
2018-Feb-20 04:01N 32°21' W 090°55'5 9.3
2018-Feb-20 03:30N 32°22' W 091°00'4 8.5
2018-Feb-20 03:01N 32°26' W 091°02'510.3
2018-Feb-20 02:30N 32°29' W 091°07'10 0.3
2018-Feb-18 18:41N 32°40' W 091°08'3 5.4
2018-Feb-18 18:08N 32°37' W 091°09'1 5.7
2018-Feb-18 18:00N 32°36' W 091°09'3 5.1
2018-Feb-18 17:30N 32°34' W 091°07'3 5.7
2018-Feb-18 16:57N 32°31' W 091°06'3 5.7
2018-Feb-18 16:31N 32°29' W 091°07'3 6.2
2018-Feb-18 16:00N 32°27' W 091°04'3 5.6
2018-Feb-18 15:30N 32°25' W 091°01'2 4.9
2018-Feb-18 15:00N 32°23' W 090°60'3 5.1
2018-Feb-18 14:30N 32°21' W 090°58'0 0.4
2018-Feb-18 14:00N 32°21' W 090°58'0 0.0
2018-Feb-18 13:30N 32°21' W 090°58'0 0.0
2018-Feb-18 13:00N 32°21' W 090°58'1 2.9
2018-Feb-18 12:30N 32°21' W 090°56'2 4.6
2018-Feb-18 12:00N 32°19' W 090°54'2 4.5
2018-Feb-18 11:31N 32°17' W 090°56'3 5.2
2018-Feb-18 11:00N 32°16' W 090°58'2 4.0
2018-Feb-18 10:31N 32°14' W 090°59'2 4.8
2018-Feb-18 10:00N 32°11' W 090°60'3 5.7
2018-Feb-18 09:30N 32°08' W 091°00'2 4.4
2018-Feb-18 09:00N 32°07' W 091°03'3 5.1
2018-Feb-18 08:30N 32°08' W 091°05'1 2.6
2018-Feb-18 08:00N 32°07' W 091°07'4 5.3
2018-Feb-18 07:10N 32°04' W 091°03'  
2018-Feb-14 07:27N 32°06' W 091°06'3 5.9
2018-Feb-14 07:00N 32°07' W 091°03'4 8.2
2018-Feb-14 06:30N 32°10' W 090°60'510.1
2018-Feb-14 06:00N 32°15' W 090°59'5 9.9
2018-Feb-14 05:30N 32°19' W 090°54'3 6.7
2018-Feb-14 05:01N 32°21' W 090°57'3 6.6
2018-Feb-14 04:30N 32°24' W 090°59'4 8.4
2018-Feb-14 04:01N 32°26' W 091°03'5 8.8
2018-Feb-14 03:30N 32°30' W 091°07'5 9.3
2018-Feb-14 03:00N 32°34' W 091°07'3 0.1
2018-Feb-12 05:35N 32°36' W 091°09'0 4.6
2018-Feb-12 05:30N 32°36' W 091°08'2 4.7
2018-Feb-12 05:01N 32°34' W 091°07'2 4.4
2018-Feb-12 04:29N 32°32' W 091°06'2 4.7
2018-Feb-12 04:01N 32°30' W 091°07'2 4.6
2018-Feb-12 03:30N 32°28' W 091°06'3 5.1
2018-Feb-12 03:00N 32°26' W 091°04'3 5.1
2018-Feb-12 02:30N 32°26' W 091°01'3 5.4
2018-Feb-12 02:01N 32°23' W 090°60'2 4.8
2018-Feb-12 01:30N 32°21' W 090°58'0 0.8
2018-Feb-12 01:01N 32°21' W 090°58'1 1.7
2018-Feb-12 00:30N 32°21' W 090°57'2 4.7
2018-Feb-12 00:00N 32°20' W 090°54'2 3.1
2018-Feb-11 23:31N 32°18' W 090°55'0 0.1
2018-Feb-11 23:01N 32°18' W 090°55'0 0.0
2018-Feb-11 22:30N 32°18' W 090°55'0 0.0
2018-Feb-11 22:00N 32°18' W 090°55'0 0.0
2018-Feb-11 21:31N 32°18' W 090°55'1 1.5
2018-Feb-11 21:00N 32°18' W 090°56'3 5.2
2018-Feb-11 20:31N 32°16' W 090°58'2 4.7
2018-Feb-11 20:01N 32°14' W 090°59'2 4.8
2018-Feb-11 19:30N 32°11' W 090°60'2 5.0
2018-Feb-11 19:00N 32°09' W 091°00'2 4.6
2018-Feb-11 18:29N 32°07' W 091°02'4 4.7
2018-Feb-11 17:43N 32°08' W 091°06'1 4.5
2018-Feb-11 17:31N 32°07' W 091°07'4 4.1
2018-Feb-11 16:26N 32°04' W 091°03'  

Dump ship's entire track history